Time;durP1;ratioP1;P1;durP2;ratioP2;P2;SDS_P1;SDS_P2;PMS_P1;PMS_P2;Temp;Humidity;BMP_temperature;BMP_pressure;BME280_temperature;BME280_humidity;BME280_pressure;Samples;Min_cycle;Max_cycle;Signal;HPM_P1;HPM_P2
2022/05/12 00:00:30;;;;;;;6.47;2.00;;;;;;;;;;4972642;28;20304;-73
2022/05/12 00:02:58;;;;;;;8.40;2.20;;;;;;;;;;4972988;28;20198;-74
2022/05/12 00:05:26;;;;;;;11.57;2.20;;;;;;;;;;4973179;28;20294;-73
2022/05/12 00:07:53;;;;;;;10.33;2.27;;;;;;;;;;4973345;28;20226;-73
2022/05/12 00:10:22;;;;;;;10.73;2.20;;;;;;;;;;4972325;28;20778;-74
2022/05/12 00:12:49;;;;;;;12.63;2.40;;;;;;;;;;4973387;28;20238;-73
2022/05/12 00:15:18;;;;;;;13.87;2.40;;;;;;;;;;4972318;28;20285;-74
2022/05/12 00:17:46;;;;;;;7.47;1.87;;;;;;;;;;4971863;28;20309;-73
2022/05/12 00:20:16;;;;;;;8.93;2.13;;;;;;;;;;4972344;28;20282;-74
2022/05/12 00:22:44;;;;;;;12.63;2.37;;;;;;;;;;4972595;28;20210;-73
2022/05/12 00:25:12;;;;;;;14.17;2.30;;;;;;;;;;4973332;28;20252;-73
2022/05/12 00:27:39;;;;;;;10.70;1.93;;;;;;;;;;4973041;28;20276;-73
2022/05/12 00:30:09;;;;;;;10.57;2.27;;;;;;;;;;4973066;28;20289;-74
2022/05/12 00:32:36;;;;;;;11.50;2.20;;;;;;;;;;4971834;28;20305;-74
2022/05/12 00:35:04;;;;;;;11.57;2.13;;;;;;;;;;4973201;28;20239;-73
2022/05/12 00:37:32;;;;;;;8.10;2.20;;;;;;;;;;4972382;28;20262;-73
2022/05/12 00:40:00;;;;;;;11.00;2.80;;;;;;;;;;4972697;28;20234;-73
2022/05/12 00:42:27;;;;;;;9.87;2.00;;;;;;;;;;4972799;28;20294;-73
2022/05/12 00:44:54;;;;;;;14.03;2.10;;;;;;;;;;4972891;28;20298;-73
2022/05/12 00:47:21;;;;;;;9.13;2.27;;;;;;;;;;4972806;28;20301;-73
2022/05/12 00:49:49;;;;;;;9.70;2.23;;;;;;;;;;4972919;28;20324;-73
2022/05/12 00:52:18;;;;;;;8.77;2.03;;;;;;;;;;4972511;28;20597;-74
2022/05/12 00:54:48;;;;;;;9.33;2.10;;;;;;;;;;4971736;28;20226;-74
2022/05/12 00:57:18;;;;;;;8.17;2.07;;;;;;;;;;4972388;28;20729;-73
2022/05/12 00:59:45;;;;;;;11.83;1.97;;;;;;;;;;4973774;28;20290;-73
2022/05/12 01:02:17;;;;;;;7.40;2.00;;;;;;;;;;4975381;28;20306;-73
2022/05/12 01:04:45;;;;;;;10.40;2.10;;;;;;;;;;4976394;28;20261;-73
2022/05/12 01:07:12;;;;;;;10.13;2.80;;;;;;;;;;4975979;28;20293;-73
2022/05/12 01:09:40;;;;;;;8.47;2.47;;;;;;;;;;4975782;28;20245;-74
2022/05/12 01:12:09;;;;;;;9.70;2.20;;;;;;;;;;4975844;28;20301;-73
2022/05/12 01:14:36;;;;;;;11.23;2.60;;;;;;;;;;4976382;28;20259;-74
2022/05/12 01:17:04;;;;;;;11.30;2.60;;;;;;;;;;4975446;28;20290;-73
2022/05/12 01:19:33;;;;;;;11.43;2.27;;;;;;;;;;4975785;28;20919;-73
2022/05/12 01:22:01;;;;;;;10.90;2.50;;;;;;;;;;4976289;28;20208;-72
2022/05/12 01:24:33;;;;;;;12.77;2.47;;;;;;;;;;4975977;28;20209;-71
2022/05/12 01:27:18;;;;;;;12.23;2.73;;;;;;;;;;4975468;28;20233;-73
2022/05/12 01:29:46;;;;;;;11.17;2.10;;;;;;;;;;4975460;28;20238;-73
2022/05/12 01:32:13;;;;;;;10.67;2.40;;;;;;;;;;4975306;28;20257;-73
2022/05/12 01:34:40;;;;;;;14.00;2.97;;;;;;;;;;4975909;28;20288;-73
2022/05/12 01:37:07;;;;;;;8.13;2.40;;;;;;;;;;4975771;28;20680;-73
2022/05/12 01:39:37;;;;;;;10.63;2.93;;;;;;;;;;4975496;28;20285;-73
2022/05/12 01:42:05;;;;;;;16.63;2.80;;;;;;;;;;4975681;28;20298;-73
2022/05/12 01:44:32;;;;;;;14.63;2.63;;;;;;;;;;4975014;28;20297;-73
2022/05/12 01:46:59;;;;;;;11.73;2.40;;;;;;;;;;4975586;28;20244;-73
2022/05/12 01:49:27;;;;;;;12.90;3.03;;;;;;;;;;4975523;28;20203;-73
2022/05/12 01:51:55;;;;;;;14.07;3.40;;;;;;;;;;4975140;28;20239;-73
2022/05/12 01:54:22;;;;;;;11.00;2.50;;;;;;;;;;4975237;28;20292;-73
2022/05/12 01:56:51;;;;;;;11.20;2.57;;;;;;;;;;4975478;28;20292;-72
2022/05/12 01:59:18;;;;;;;13.93;2.90;;;;;;;;;;4974874;28;20320;-73
2022/05/12 02:01:46;;;;;;;11.93;3.17;;;;;;;;;;4975456;28;20205;-73
2022/05/12 02:04:13;;;;;;;12.90;2.70;;;;;;;;;;4974960;28;20202;-73
2022/05/12 02:06:41;;;;;;;12.70;3.03;;;;;;;;;;4975623;28;20586;-73
2022/05/12 02:09:08;;;;;;;13.90;2.80;;;;;;;;;;4974637;28;20325;-72
2022/05/12 02:11:36;;;;;;;13.77;2.87;;;;;;;;;;4975226;28;20693;-74
2022/05/12 02:14:05;;;;;;;13.80;3.13;;;;;;;;;;4974860;28;20296;-73
2022/05/12 02:16:33;;;;;;;13.70;2.67;;;;;;;;;;4975321;28;20249;-73
2022/05/12 02:19:01;;;;;;;13.00;3.07;;;;;;;;;;4974677;28;20222;-74
2022/05/12 02:21:28;;;;;;;13.47;3.10;;;;;;;;;;4974620;28;20339;-74
2022/05/12 02:23:57;;;;;;;9.97;2.43;;;;;;;;;;4974652;28;20206;-73
2022/05/12 02:26:24;;;;;;;13.90;2.70;;;;;;;;;;4974323;28;20553;-73
2022/05/12 02:28:51;;;;;;;11.50;2.70;;;;;;;;;;4968638;28;20294;-73
2022/05/12 02:31:20;;;;;;;10.93;2.70;;;;;;;;;;4974548;28;20238;-73
2022/05/12 02:33:47;;;;;;;12.57;2.97;;;;;;;;;;4959241;28;20297;-73
2022/05/12 02:36:14;;;;;;;11.33;2.70;;;;;;;;;;4965907;28;20248;-74
2022/05/12 02:38:42;;;;;;;10.43;2.60;;;;;;;;;;4974711;28;20265;-73
2022/05/12 02:41:09;;;;;;;11.13;2.93;;;;;;;;;;4973668;28;20300;-74
2022/05/12 02:43:36;;;;;;;12.17;2.90;;;;;;;;;;4973897;28;20230;-72
2022/05/12 02:46:05;;;;;;;9.80;3.23;;;;;;;;;;4974810;28;20206;-73
2022/05/12 02:48:35;;;;;;;10.83;2.30;;;;;;;;;;4974698;28;20226;-72
2022/05/12 02:51:02;;;;;;;11.53;2.13;;;;;;;;;;4974614;28;20238;-73
2022/05/12 02:53:30;;;;;;;11.97;2.97;;;;;;;;;;4974781;28;20237;-73
2022/05/12 02:55:58;;;;;;;11.70;2.50;;;;;;;;;;4974315;28;20705;-73
2022/05/12 02:58:26;;;;;;;10.10;2.13;;;;;;;;;;4973960;28;20233;-74
2022/05/12 03:00:53;;;;;;;13.77;2.50;;;;;;;;;;4970919;28;20295;-73
2022/05/12 03:03:20;;;;;;;16.77;2.87;;;;;;;;;;4962105;28;20211;-74
2022/05/12 03:05:48;;;;;;;11.87;2.50;;;;;;;;;;4955076;29;20233;-73
2022/05/12 03:08:16;;;;;;;9.67;2.77;;;;;;;;;;4966913;28;20287;-73
2022/05/12 03:10:43;;;;;;;10.93;2.70;;;;;;;;;;4956201;28;20238;-73
2022/05/12 03:13:10;;;;;;;13.50;2.53;;;;;;;;;;4954625;28;20614;-73
2022/05/12 03:15:37;;;;;;;14.63;2.90;;;;;;;;;;4954824;28;20237;-73
2022/05/12 03:18:05;;;;;;;12.93;2.90;;;;;;;;;;4955002;29;20622;-73
2022/05/12 03:20:32;;;;;;;9.37;2.70;;;;;;;;;;4954806;29;20215;-73
2022/05/12 03:23:01;;;;;;;13.10;2.80;;;;;;;;;;4954158;28;20212;-73
2022/05/12 03:25:28;;;;;;;10.23;2.80;;;;;;;;;;4954763;28;20655;-73
2022/05/12 03:27:55;;;;;;;9.60;2.63;;;;;;;;;;4954815;28;20277;-73
2022/05/12 03:30:24;;;;;;;13.97;2.73;;;;;;;;;;4954030;29;20292;-73
2022/05/12 03:32:51;;;;;;;11.63;2.90;;;;;;;;;;4954332;29;20750;-73
2022/05/12 03:35:19;;;;;;;10.70;2.80;;;;;;;;;;4954834;28;20292;-73
2022/05/12 03:37:46;;;;;;;20.23;3.20;;;;;;;;;;4953926;28;20672;-74
2022/05/12 03:40:17;;;;;;;12.30;2.93;;;;;;;;;;4954437;29;20227;-73
2022/05/12 03:42:44;;;;;;;11.30;2.67;;;;;;;;;;4954601;29;20205;-73
2022/05/12 03:45:11;;;;;;;17.20;2.63;;;;;;;;;;4953973;29;20289;-72
2022/05/12 03:47:39;;;;;;;11.63;2.87;;;;;;;;;;4954525;29;20210;-73
2022/05/12 03:50:08;;;;;;;12.50;3.00;;;;;;;;;;4953933;29;20298;-73
2022/05/12 03:52:36;;;;;;;12.20;3.10;;;;;;;;;;4954387;29;20292;-73
2022/05/12 03:55:04;;;;;;;12.70;2.60;;;;;;;;;;4954070;29;20296;-73
2022/05/12 03:57:33;;;;;;;13.07;2.93;;;;;;;;;;4954261;29;20206;-73
2022/05/12 04:00:00;;;;;;;14.63;2.97;;;;;;;;;;4953525;29;20664;-73
2022/05/12 04:02:28;;;;;;;13.93;3.23;;;;;;;;;;4953679;29;20234;-73
2022/05/12 04:04:55;;;;;;;17.33;3.13;;;;;;;;;;4953883;29;20641;-72
2022/05/12 04:07:23;;;;;;;11.53;2.97;;;;;;;;;;4954233;28;20241;-73
2022/05/12 04:09:51;;;;;;;14.00;3.03;;;;;;;;;;4953593;28;20285;-73
2022/05/12 04:12:18;;;;;;;12.50;2.87;;;;;;;;;;4953610;29;20199;-73
2022/05/12 04:14:47;;;;;;;14.27;2.70;;;;;;;;;;4953986;29;20290;-73
2022/05/12 04:17:15;;;;;;;11.80;2.80;;;;;;;;;;4954015;29;20242;-73
2022/05/12 04:19:43;;;;;;;13.40;3.27;;;;;;;;;;4954069;29;20237;-73
2022/05/12 04:22:10;;;;;;;14.43;2.80;;;;;;;;;;4954300;29;20226;-73
2022/05/12 04:24:37;;;;;;;7.70;2.80;;;;;;;;;;4953616;29;20245;-72
2022/05/12 04:27:06;;;;;;;14.60;3.03;;;;;;;;;;4953444;29;20291;-73
2022/05/12 04:29:34;;;;;;;14.23;2.97;;;;;;;;;;4953965;29;20246;-73
2022/05/12 04:32:02;;;;;;;16.60;3.30;;;;;;;;;;4952732;29;20246;-73
2022/05/12 04:37:14;;;;;;;18.67;3.40;;;;;;;;;;4957599;29;20256;-73
2022/05/12 04:39:42;;;;;;;11.50;3.20;;;;;;;;;;4957077;29;20269;-73
2022/05/12 04:42:09;;;;;;;12.50;3.17;;;;;;;;;;4957465;29;20615;-72
2022/05/12 04:44:36;;;;;;;8.43;3.13;;;;;;;;;;4956470;29;20295;-73
2022/05/12 04:47:05;;;;;;;12.80;3.70;;;;;;;;;;4956334;28;20199;-72
2022/05/12 04:49:32;;;;;;;14.77;3.40;;;;;;;;;;4945659;29;20721;-72
2022/05/12 04:52:01;;;;;;;13.80;3.07;;;;;;;;;;4956960;29;20723;-73
2022/05/12 04:54:28;;;;;;;12.37;2.80;;;;;;;;;;4956921;29;20207;-73
2022/05/12 04:56:56;;;;;;;12.30;3.57;;;;;;;;;;4957051;29;20227;-73
2022/05/12 04:59:24;;;;;;;11.07;3.60;;;;;;;;;;4957346;29;20325;-73
2022/05/12 05:01:51;;;;;;;15.03;3.73;;;;;;;;;;4956810;29;20286;-73
2022/05/12 05:04:20;;;;;;;14.50;3.67;;;;;;;;;;4956324;29;20257;-73
2022/05/12 05:06:47;;;;;;;16.50;3.30;;;;;;;;;;4954656;29;20196;-73
2022/05/12 05:09:15;;;;;;;10.83;3.30;;;;;;;;;;4956828;28;20266;-74
2022/05/12 05:11:42;;;;;;;15.63;3.20;;;;;;;;;;4956618;29;20291;-74
2022/05/12 05:14:09;;;;;;;13.10;3.27;;;;;;;;;;4956777;29;20245;-75
2022/05/12 05:16:36;;;;;;;14.83;3.20;;;;;;;;;;4956444;29;20289;-74
2022/05/12 05:19:04;;;;;;;9.50;2.83;;;;;;;;;;4955986;29;20221;-74
2022/05/12 05:21:32;;;;;;;10.47;3.50;;;;;;;;;;4956806;29;20315;-73
2022/05/12 05:23:59;;;;;;;12.47;3.47;;;;;;;;;;4956884;29;20240;-74
2022/05/12 05:26:27;;;;;;;15.70;3.30;;;;;;;;;;4956900;29;20295;-74
2022/05/12 05:28:54;;;;;;;16.67;3.33;;;;;;;;;;4956750;28;20312;-74
2022/05/12 05:31:21;;;;;;;11.30;3.43;;;;;;;;;;4956753;28;20303;-74
2022/05/12 05:33:49;;;;;;;12.90;3.57;;;;;;;;;;4955590;28;20291;-73
2022/05/12 05:36:16;;;;;;;12.33;3.17;;;;;;;;;;4955585;29;20211;-74
2022/05/12 05:38:45;;;;;;;10.23;2.93;;;;;;;;;;4955871;29;20644;-74
2022/05/12 05:41:13;;;;;;;14.00;3.10;;;;;;;;;;4956548;29;20217;-74
2022/05/12 05:43:40;;;;;;;14.47;3.37;;;;;;;;;;4956721;29;20214;-73
2022/05/12 05:46:07;;;;;;;14.87;3.30;;;;;;;;;;4953865;28;20282;-74
2022/05/12 05:48:34;;;;;;;10.70;2.87;;;;;;;;;;4951503;28;20273;-73
2022/05/12 05:53:48;;;;;;;8.70;2.60;;;;;;;;;;4955142;29;21005;-73
2022/05/12 05:56:17;;;;;;;12.13;2.60;;;;;;;;;;4954567;29;20203;-74
2022/05/12 05:58:45;;;;;;;10.67;2.87;;;;;;;;;;4954615;28;20234;-73
2022/05/12 06:01:13;;;;;;;15.57;3.07;;;;;;;;;;4954328;28;20227;-74
2022/05/12 06:03:41;;;;;;;9.63;2.90;;;;;;;;;;4953630;29;20738;-74
2022/05/12 06:06:08;;;;;;;10.73;2.73;;;;;;;;;;4954450;29;20234;-74
2022/05/12 06:08:36;;;;;;;11.13;2.70;;;;;;;;;;4954275;28;20293;-74
2022/05/12 06:11:05;;;;;;;11.67;2.73;;;;;;;;;;4974788;28;20194;-74
2022/05/12 06:13:33;;;;;;;11.10;3.00;;;;;;;;;;4974785;28;20698;-73
2022/05/12 06:16:00;;;;;;;12.20;2.90;;;;;;;;;;4975044;28;20580;-73
2022/05/12 06:18:27;;;;;;;12.03;3.03;;;;;;;;;;4974767;28;20210;-74
2022/05/12 06:20:55;;;;;;;9.83;2.80;;;;;;;;;;4974878;28;20246;-74
2022/05/12 06:23:22;;;;;;;12.73;2.87;;;;;;;;;;4974735;28;20614;-74
2022/05/12 06:25:50;;;;;;;13.50;2.80;;;;;;;;;;4975288;28;20207;-74
2022/05/12 06:28:19;;;;;;;11.20;2.23;;;;;;;;;;4974709;28;20257;-74
2022/05/12 06:30:46;;;;;;;12.63;2.67;;;;;;;;;;4974930;28;20233;-74
2022/05/12 06:33:17;;;;;;;12.27;2.40;;;;;;;;;;4974918;28;20201;-74
2022/05/12 06:35:44;;;;;;;7.93;2.15;;;;;;;;;;4973991;28;20721;-74
2022/05/12 06:38:12;;;;;;;8.25;2.38;;;;;;;;;;4974608;28;20203;-75
2022/05/12 06:40:39;;;;;;;10.80;2.70;;;;;;;;;;4974288;28;20225;-74
2022/05/12 06:43:07;;;;;;;8.27;2.25;;;;;;;;;;4973732;28;20250;-75
2022/05/12 06:45:36;;;;;;;12.52;2.90;;;;;;;;;;4974651;28;20202;-73
2022/05/12 06:48:04;;;;;;;14.82;2.80;;;;;;;;;;4974396;28;20194;-74
2022/05/12 06:50:31;;;;;;;8.23;1.88;;;;;;;;;;4973862;28;20289;-74
2022/05/12 06:52:59;;;;;;;8.30;2.13;;;;;;;;;;4974470;28;20289;-74
2022/05/12 06:55:27;;;;;;;6.25;2.20;;;;;;;;;;4974419;28;20298;-75
2022/05/12 06:57:54;;;;;;;25.33;3.53;;;;;;;;;;4973394;28;20205;-75
2022/05/12 07:00:24;;;;;;;7.78;2.10;;;;;;;;;;4973896;28;20313;-75
2022/05/12 07:02:53;;;;;;;11.80;2.70;;;;;;;;;;4974150;28;20202;-75
2022/05/12 07:05:22;;;;;;;9.60;2.05;;;;;;;;;;4973209;28;20211;-75
2022/05/12 07:07:49;;;;;;;9.18;2.38;;;;;;;;;;4973412;28;20230;-75
2022/05/12 07:10:17;;;;;;;12.07;3.03;;;;;;;;;;4964116;28;20317;-75
2022/05/12 07:12:44;;;;;;;10.57;2.60;;;;;;;;;;4954389;29;20722;-76
2022/05/12 07:15:13;;;;;;;12.70;2.35;;;;;;;;;;4954430;29;20203;-75
2022/05/12 07:17:43;;;;;;;8.13;2.10;;;;;;;;;;4953954;28;20203;-75
2022/05/12 07:28:29;;;;;;;7.78;2.28;;;;;;;;;;4948342;29;20206;-75
2022/05/12 07:31:02;;;;;;;12.35;2.50;;;;;;;;;;4953933;29;20242;-75
2022/05/12 07:33:30;;;;;;;8.70;2.40;;;;;;;;;;4954292;29;20203;-76
2022/05/12 07:35:58;;;;;;;10.40;2.30;;;;;;;;;;4952628;28;20639;-75
2022/05/12 07:38:26;;;;;;;8.95;2.30;;;;;;;;;;4952113;29;20207;-76
2022/05/12 07:40:53;;;;;;;11.75;2.63;;;;;;;;;;4952820;29;20309;-76
2022/05/12 07:43:21;;;;;;;11.20;2.60;;;;;;;;;;4954793;28;20596;-76
2022/05/12 07:45:48;;;;;;;11.40;2.30;;;;;;;;;;4953042;29;20294;-75
2022/05/12 07:48:16;;;;;;;9.73;2.10;;;;;;;;;;4953536;29;20234;-75
2022/05/12 07:50:43;;;;;;;12.48;2.28;;;;;;;;;;4958782;28;20226;-75
2022/05/12 07:53:11;;;;;;;12.98;2.25;;;;;;;;;;4963230;28;20290;-75
2022/05/12 07:55:39;;;;;;;8.57;2.00;;;;;;;;;;4953501;28;20239;-75
2022/05/12 07:58:06;;;;;;;9.07;2.13;;;;;;;;;;4948858;28;20297;-75
2022/05/12 08:00:35;;;;;;;10.32;2.13;;;;;;;;;;4952768;29;20313;-75
2022/05/12 08:03:03;;;;;;;6.82;1.98;;;;;;;;;;4952857;28;20199;-74
2022/05/12 08:05:30;;;;;;;9.55;2.10;;;;;;;;;;4953232;29;20270;-74
2022/05/12 08:07:57;;;;;;;7.38;1.92;;;;;;;;;;4952655;29;20206;-75
2022/05/12 08:10:26;;;;;;;6.45;1.80;;;;;;;;;;4952407;28;20321;-76
2022/05/12 08:12:53;;;;;;;7.13;1.77;;;;;;;;;;4952532;29;20235;-74
2022/05/12 08:15:22;;;;;;;7.60;2.05;;;;;;;;;;4953077;29;20249;-74
2022/05/12 08:17:49;;;;;;;5.90;1.77;;;;;;;;;;4952425;29;20634;-76
2022/05/12 08:20:17;;;;;;;6.80;1.65;;;;;;;;;;4951665;28;20637;-75
2022/05/12 08:22:44;;;;;;;5.68;1.48;;;;;;;;;;4951627;29;20199;-75
2022/05/12 08:25:11;;;;;;;7.53;1.92;;;;;;;;;;4952360;29;20199;-75
2022/05/12 08:27:40;;;;;;;5.07;1.70;;;;;;;;;;4952228;29;20203;-75
2022/05/12 08:30:09;;;;;;;5.55;1.60;;;;;;;;;;4952948;29;20227;-75
2022/05/12 08:32:36;;;;;;;7.00;1.52;;;;;;;;;;4945027;29;20871;-74
2022/05/12 08:35:04;;;;;;;14.10;1.95;;;;;;;;;;4951717;29;20608;-75
2022/05/12 08:37:31;;;;;;;8.52;1.95;;;;;;;;;;4951117;29;20294;-75
2022/05/12 08:39:58;;;;;;;6.35;1.88;;;;;;;;;;4951652;29;20254;-76
2022/05/12 08:42:29;;;;;;;6.80;1.83;;;;;;;;;;4951548;29;20258;-74
2022/05/12 08:44:59;;;;;;;6.10;1.52;;;;;;;;;;4950255;29;20916;-75
2022/05/12 08:47:28;;;;;;;5.90;2.00;;;;;;;;;;4951894;28;20215;-75
2022/05/12 08:49:56;;;;;;;7.00;1.67;;;;;;;;;;4952615;29;20207;-75
2022/05/12 08:52:25;;;;;;;8.27;1.83;;;;;;;;;;4952855;29;20290;-76
2022/05/12 08:54:54;;;;;;;6.95;1.65;;;;;;;;;;4952559;29;20234;-74
2022/05/12 08:57:28;;;;;;;6.30;1.55;;;;;;;;;;4952603;29;20290;-75
2022/05/12 08:59:56;;;;;;;9.32;2.13;;;;;;;;;;4952284;29;20245;-74
2022/05/12 09:02:29;;;;;;;5.88;1.30;;;;;;;;;;4952939;29;20203;-74
2022/05/12 09:05:07;;;;;;;7.28;1.50;;;;;;;;;;4951967;29;20289;-75
2022/05/12 09:07:38;;;;;;;5.82;1.35;;;;;;;;;;4952707;29;20286;-75
2022/05/12 09:10:12;;;;;;;5.93;1.55;;;;;;;;;;4952349;28;20323;-75
2022/05/12 09:12:41;;;;;;;7.03;1.70;;;;;;;;;;4952083;29;20290;-74
2022/05/12 09:15:10;;;;;;;4.80;1.30;;;;;;;;;;4951813;28;20294;-74
2022/05/12 09:17:42;;;;;;;3.42;1.20;;;;;;;;;;4952459;29;20290;-74
2022/05/12 09:20:10;;;;;;;4.65;1.10;;;;;;;;;;4952037;28;20250;-74
2022/05/12 09:22:39;;;;;;;3.78;1.17;;;;;;;;;;4955633;29;20207;-75
2022/05/12 09:25:07;;;;;;;5.20;1.45;;;;;;;;;;4955612;29;20231;-76
2022/05/12 09:27:35;;;;;;;5.10;1.40;;;;;;;;;;4953045;29;20609;-75
2022/05/12 09:30:04;;;;;;;5.25;1.42;;;;;;;;;;4955153;29;20199;-76
2022/05/12 09:32:33;;;;;;;6.00;1.40;;;;;;;;;;4955536;29;20211;-75
2022/05/12 09:35:21;;;;;;;8.07;2.03;;;;;;;;;;4955303;29;20235;-76
2022/05/12 09:37:49;;;;;;;7.40;1.67;;;;;;;;;;4955059;28;20211;-75
2022/05/12 09:40:18;;;;;;;5.80;1.40;;;;;;;;;;4955090;29;20234;-75
2022/05/12 09:42:46;;;;;;;10.85;1.50;;;;;;;;;;4954581;29;20242;-74
2022/05/12 09:45:22;;;;;;;6.28;1.63;;;;;;;;;;4955586;29;20598;-75
2022/05/12 09:47:49;;;;;;;6.03;1.27;;;;;;;;;;4951247;29;20289;-76
2022/05/12 09:50:22;;;;;;;5.97;1.48;;;;;;;;;;4954732;29;20638;-76
2022/05/12 09:52:58;;;;;;;3.63;1.13;;;;;;;;;;4955444;29;20207;-75
2022/05/12 09:55:27;;;;;;;9.90;1.27;;;;;;;;;;4936523;29;20622;-76
2022/05/12 09:57:56;;;;;;;5.32;1.40;;;;;;;;;;4936359;29;20204;-73
2022/05/12 10:00:34;;;;;;;4.32;1.58;;;;;;;;;;4936765;29;20322;-75
2022/05/12 10:08:45;;;;;;;4.05;1.25;;;;;;;;;;4955162;28;20226;-73
2022/05/12 10:11:14;;;;;;;4.93;1.40;;;;;;;;;;4955230;29;20201;-76
2022/05/12 10:13:45;;;;;;;5.72;1.60;;;;;;;;;;4954151;28;20203;-76
2022/05/12 10:16:15;;;;;;;6.00;1.20;;;;;;;;;;4956080;29;20199;-76
2022/05/12 10:18:45;;;;;;;5.90;1.40;;;;;;;;;;4955332;29;20262;-76
2022/05/12 10:21:15;;;;;;;3.75;1.10;;;;;;;;;;4955825;29;20648;-75
2022/05/12 10:23:47;;;;;;;6.10;1.50;;;;;;;;;;4955516;29;20678;-76
2022/05/12 10:26:20;;;;;;;3.30;1.05;;;;;;;;;;4955210;29;20319;-75
2022/05/12 10:28:50;;;;;;;6.28;1.40;;;;;;;;;;4955482;29;20715;-76
2022/05/12 10:31:24;;;;;;;1.98;0.88;;;;;;;;;;4955542;28;20281;-75
2022/05/12 10:33:53;;;;;;;5.22;1.20;;;;;;;;;;4954598;29;20784;-75
2022/05/12 10:36:29;;;;;;;3.90;1.38;;;;;;;;;;4955751;29;20243;-76
2022/05/12 10:39:03;;;;;;;4.07;1.02;;;;;;;;;;4952290;28;20206;-73
2022/05/12 10:41:33;;;;;;;4.05;1.23;;;;;;;;;;4961675;28;20262;-76
2022/05/12 10:44:10;;;;;;;4.88;1.30;;;;;;;;;;4954769;29;20207;-74
2022/05/12 10:46:44;;;;;;;5.47;1.38;;;;;;;;;;4948559;29;20206;-74
2022/05/12 10:49:15;;;;;;;4.00;1.50;;;;;;;;;;4955248;29;20302;-76
2022/05/12 10:51:48;;;;;;;5.03;1.23;;;;;;;;;;4954490;28;20234;-76
2022/05/12 10:54:24;;;;;;;5.55;1.60;;;;;;;;;;4955093;29;20306;-75
2022/05/12 10:57:00;;;;;;;4.45;1.48;;;;;;;;;;4953922;29;20206;-75
2022/05/12 10:59:37;;;;;;;6.75;1.88;;;;;;;;;;4942404;29;20238;-75
2022/05/12 11:02:08;;;;;;;2.83;1.13;;;;;;;;;;4954225;28;20277;-75
2022/05/12 11:04:38;;;;;;;7.03;1.60;;;;;;;;;;4954185;29;20227;-76
2022/05/12 11:07:08;;;;;;;5.25;1.70;;;;;;;;;;4952198;28;20207;-75
2022/05/12 11:09:38;;;;;;;4.93;1.30;;;;;;;;;;4965221;28;20242;-74
2022/05/12 11:12:07;;;;;;;5.07;1.60;;;;;;;;;;4968953;28;20238;-75
2022/05/12 11:14:35;;;;;;;6.25;1.40;;;;;;;;;;4978481;28;20288;-76
2022/05/12 11:17:07;;;;;;;6.15;1.30;;;;;;;;;;4977517;28;20303;-75
2022/05/12 11:19:35;;;;;;;4.63;1.50;;;;;;;;;;4970729;28;20205;-75
2022/05/12 11:22:08;;;;;;;5.35;1.30;;;;;;;;;;4973499;28;20261;-75
2022/05/12 11:24:41;;;;;;;5.18;1.30;;;;;;;;;;4973499;28;20289;-75
2022/05/12 11:27:29;;;;;;;3.95;1.13;;;;;;;;;;4973160;28;20300;-74
2022/05/12 11:30:04;;;;;;;3.50;1.40;;;;;;;;;;4967400;28;20242;-75
2022/05/12 11:32:39;;;;;;;3.88;1.40;;;;;;;;;;4973834;28;20261;-74
2022/05/12 11:35:07;;;;;;;5.45;1.30;;;;;;;;;;4973830;28;20233;-75
2022/05/12 11:37:36;;;;;;;5.65;1.30;;;;;;;;;;4972833;28;20218;-75
2022/05/12 11:40:08;;;;;;;4.18;1.40;;;;;;;;;;4970465;28;20738;-76
2022/05/12 11:45:47;;;;;;;3.75;1.30;;;;;;;;;;4964423;28;20241;-74
2022/05/12 11:48:21;;;;;;;3.53;1.23;;;;;;;;;;4963409;28;20194;-75
2022/05/12 11:50:57;;;;;;;3.45;1.13;;;;;;;;;;4964686;28;20229;-75
2022/05/12 11:53:27;;;;;;;4.80;1.35;;;;;;;;;;4964443;28;20208;-75
2022/05/12 11:56:01;;;;;;;4.82;1.33;;;;;;;;;;4963828;28;20251;-75
2022/05/12 11:58:32;;;;;;;3.58;1.20;;;;;;;;;;4963004;28;20207;-76
2022/05/12 12:01:02;;;;;;;5.97;1.17;;;;;;;;;;4962635;28;20317;-74
2022/05/12 12:03:47;;;;;;;4.75;1.38;;;;;;;;;;4965177;28;20764;-76
2022/05/12 12:06:35;;;;;;;4.97;1.20;;;;;;;;;;4968431;28;20685;-74
2022/05/12 12:09:25;;;;;;;3.20;1.17;;;;;;;;;;4965275;28;20265;-75
2022/05/12 12:11:54;;;;;;;6.28;1.35;;;;;;;;;;4953326;29;20191;-75
2022/05/12 12:14:36;;;;;;;4.05;1.30;;;;;;;;;;4953247;29;20814;-74
2022/05/12 12:17:05;;;;;;;3.58;1.10;;;;;;;;;;4951889;29;20287;-75
2022/05/12 12:19:43;;;;;;;5.50;1.30;;;;;;;;;;4950422;28;20221;-76
2022/05/12 12:22:19;;;;;;;4.63;1.45;;;;;;;;;;4958130;28;20254;-76
2022/05/12 12:24:54;;;;;;;5.93;1.42;;;;;;;;;;4957608;28;20289;-75
2022/05/12 12:27:32;;;;;;;5.93;1.38;;;;;;;;;;4953531;28;20301;-75
2022/05/12 12:30:14;;;;;;;3.35;1.17;;;;;;;;;;4958571;28;20210;-75
2022/05/12 12:32:41;;;;;;;4.20;1.25;;;;;;;;;;4960585;28;20658;-75
2022/05/12 12:35:13;;;;;;;7.18;1.30;;;;;;;;;;4962919;28;20273;-75
2022/05/12 12:37:42;;;;;;;3.92;1.10;;;;;;;;;;4954949;28;20199;-75
2022/05/12 12:40:24;;;;;;;5.15;1.30;;;;;;;;;;4953344;29;20345;-74
2022/05/12 12:42:53;;;;;;;5.15;1.30;;;;;;;;;;4950078;28;20218;-76
2022/05/12 12:45:21;;;;;;;3.92;1.20;;;;;;;;;;4952343;28;20291;-75
2022/05/12 12:47:53;;;;;;;3.65;1.05;;;;;;;;;;4953189;29;20638;-75
2022/05/12 12:50:25;;;;;;;3.72;1.20;;;;;;;;;;4952084;28;20203;-75
2022/05/12 12:52:56;;;;;;;4.53;1.15;;;;;;;;;;4953057;29;20286;-76
2022/05/12 12:58:15;;;;;;;5.72;1.30;;;;;;;;;;4956466;29;20273;-74
2022/05/12 13:00:42;;;;;;;7.05;1.45;;;;;;;;;;4954440;29;20199;-75
2022/05/12 13:03:11;;;;;;;5.28;1.35;;;;;;;;;;4964790;28;20317;-75
2022/05/12 13:05:38;;;;;;;5.50;1.10;;;;;;;;;;4956655;29;20297;-75
2022/05/12 13:08:08;;;;;;;9.27;1.50;;;;;;;;;;4957069;29;20619;-76
2022/05/12 13:10:43;;;;;;;5.15;1.20;;;;;;;;;;4955684;28;20907;-75
2022/05/12 13:13:10;;;;;;;5.93;1.13;;;;;;;;;;4952692;29;20211;-75
2022/05/12 13:15:40;;;;;;;3.55;1.13;;;;;;;;;;4956018;29;20290;-75
2022/05/12 13:18:09;;;;;;;5.35;1.27;;;;;;;;;;4955930;29;20237;-75
2022/05/12 13:20:41;;;;;;;4.40;1.00;;;;;;;;;;4955175;29;20195;-75
2022/05/12 13:23:10;;;;;;;4.57;1.10;;;;;;;;;;4955542;29;20758;-75
2022/05/12 13:25:38;;;;;;;4.07;1.27;;;;;;;;;;4955312;29;20293;-75
2022/05/12 13:28:07;;;;;;;4.68;1.20;;;;;;;;;;4956030;28;20199;-74
2022/05/12 13:30:40;;;;;;;3.80;1.02;;;;;;;;;;4955503;29;20286;-75
2022/05/12 13:33:11;;;;;;;5.80;1.33;;;;;;;;;;4956114;29;20282;-75
2022/05/12 13:35:39;;;;;;;4.13;1.52;;;;;;;;;;4953690;29;20239;-75
2022/05/12 13:38:07;;;;;;;4.45;1.70;;;;;;;;;;4955691;29;20253;-75
2022/05/12 13:40:39;;;;;;;4.78;1.30;;;;;;;;;;4955346;29;20739;-75
2022/05/12 13:43:06;;;;;;;3.95;1.35;;;;;;;;;;4955584;29;20215;-76
2022/05/12 13:45:35;;;;;;;4.40;1.40;;;;;;;;;;4955152;29;20200;-75
2022/05/12 13:48:04;;;;;;;3.78;1.27;;;;;;;;;;4955671;29;20203;-75
2022/05/12 13:50:35;;;;;;;6.80;1.35;;;;;;;;;;4954519;28;20238;-76
2022/05/12 13:53:03;;;;;;;5.10;1.27;;;;;;;;;;4959734;28;20237;-75
2022/05/12 13:55:31;;;;;;;3.28;1.10;;;;;;;;;;4955508;28;20293;-76
2022/05/12 13:58:12;;;;;;;4.60;1.50;;;;;;;;;;4954872;28;20282;-76
2022/05/12 14:00:40;;;;;;;4.38;1.20;;;;;;;;;;4969870;28;20198;-75
2022/05/12 14:03:27;;;;;;;5.20;1.10;;;;;;;;;;4961598;28;20237;-75
2022/05/12 14:05:58;;;;;;;5.03;1.15;;;;;;;;;;4954273;28;20207;-75
2022/05/12 14:08:30;;;;;;;6.05;1.42;;;;;;;;;;4956035;28;20292;-74
2022/05/12 14:11:08;;;;;;;3.08;1.38;;;;;;;;;;4955888;29;20557;-74
2022/05/12 14:19:15;;;;;;;7.80;1.50;;;;;;;;;;4955272;29;20772;-74
2022/05/12 14:21:45;;;;;;;4.88;1.42;;;;;;;;;;4955662;29;20262;-75
2022/05/12 14:24:13;;;;;;;7.68;1.17;;;;;;;;;;4955751;29;20238;-75
2022/05/12 14:26:41;;;;;;;5.88;1.20;;;;;;;;;;4956006;29;20203;-74
2022/05/12 14:29:08;;;;;;;4.57;1.50;;;;;;;;;;4955231;29;20241;-75
2022/05/12 14:31:36;;;;;;;7.45;1.15;;;;;;;;;;4955190;29;20682;-75
2022/05/12 14:34:04;;;;;;;4.00;1.40;;;;;;;;;;4955437;29;20215;-75
2022/05/12 14:36:31;;;;;;;5.63;1.35;;;;;;;;;;4955683;29;20290;-75
2022/05/12 14:39:00;;;;;;;4.35;1.30;;;;;;;;;;4955531;29;20244;-75
2022/05/12 14:41:27;;;;;;;6.03;1.38;;;;;;;;;;4955869;29;20210;-74
2022/05/12 14:43:55;;;;;;;5.30;1.25;;;;;;;;;;4955573;29;20297;-75
2022/05/12 14:46:22;;;;;;;2.55;1.00;;;;;;;;;;4954759;29;20249;-75
2022/05/12 14:48:51;;;;;;;3.53;1.10;;;;;;;;;;4955068;29;20235;-75
2022/05/12 14:51:19;;;;;;;4.97;1.27;;;;;;;;;;4955278;29;20290;-75
2022/05/12 14:53:46;;;;;;;5.03;1.40;;;;;;;;;;4955120;29;20282;-75
2022/05/12 14:56:14;;;;;;;12.32;1.45;;;;;;;;;;4955168;29;20297;-75
2022/05/12 14:58:41;;;;;;;4.25;1.20;;;;;;;;;;4955642;29;20639;-75
2022/05/12 15:01:09;;;;;;;4.18;1.10;;;;;;;;;;4954274;29;20667;-75
2022/05/12 15:03:36;;;;;;;3.67;1.23;;;;;;;;;;4954873;29;20671;-75
2022/05/12 15:06:04;;;;;;;5.63;1.10;;;;;;;;;;4955035;29;20334;-75
2022/05/12 15:08:31;;;;;;;4.72;1.50;;;;;;;;;;4954903;28;20250;-75
2022/05/12 15:10:59;;;;;;;5.95;1.27;;;;;;;;;;4955029;28;20649;-75
2022/05/12 15:13:27;;;;;;;2.55;1.00;;;;;;;;;;4954989;28;20290;-75
2022/05/12 15:15:56;;;;;;;4.47;1.13;;;;;;;;;;4954776;28;20295;-75
2022/05/12 15:18:23;;;;;;;5.90;1.42;;;;;;;;;;4954296;28;20218;-75
2022/05/12 15:20:50;;;;;;;4.80;1.20;;;;;;;;;;4954301;29;20290;-74